createdAt,value
2023-03-12T00:00:57.909Z,8.00
2023-03-12T00:02:00.871Z,7.50
2023-03-12T00:03:02.903Z,7.32
2023-03-12T00:04:07.394Z,6.00
2023-03-12T00:05:10.233Z,5.95
2023-03-12T00:06:13.292Z,7.55
2023-03-12T00:07:15.149Z,7.85
2023-03-12T00:08:18.050Z,8.35
2023-03-12T00:09:21.147Z,5.55
2023-03-12T00:10:24.105Z,7.00
2023-03-12T00:11:25.986Z,8.02
2023-03-12T00:12:28.929Z,7.82
2023-03-12T00:13:30.835Z,6.22
2023-03-12T00:14:34.427Z,5.88
2023-03-12T00:15:37.658Z,7.20
2023-03-12T00:16:40.556Z,5.90
2023-03-12T00:17:42.547Z,5.88
2023-03-12T00:18:45.553Z,5.07
2023-03-12T00:19:51.741Z,6.53
2023-03-12T00:20:55.406Z,6.97
2023-03-12T00:21:58.232Z,6.35
2023-03-12T00:23:00.172Z,6.70
2023-03-12T00:24:02.988Z,6.82
2023-03-12T00:25:07.579Z,7.80
2023-03-12T00:26:12.847Z,8.27
2023-03-12T00:27:14.749Z,7.53
2023-03-12T00:28:17.574Z,6.75
2023-03-12T00:29:19.492Z,6.20
2023-03-12T00:30:22.541Z,11.57
2023-03-12T00:31:27.580Z,7.93
2023-03-12T00:32:30.632Z,7.55
2023-03-12T00:33:32.554Z,7.95
2023-03-12T00:34:35.501Z,5.93
2023-03-12T00:35:39.616Z,6.45
2023-03-12T00:36:42.408Z,5.70
2023-03-12T00:37:44.942Z,7.18
2023-03-12T00:38:48.230Z,12.18
2023-03-12T00:39:50.283Z,5.57
2023-03-12T00:40:53.106Z,7.32
2023-03-12T00:41:55.222Z,7.25
2023-03-12T00:42:58.479Z,8.80
2023-03-12T00:44:00.503Z,8.25
2023-03-12T00:45:03.437Z,7.40
2023-03-12T00:46:05.457Z,8.85
2023-03-12T00:47:08.708Z,6.97
2023-03-12T00:48:10.625Z,8.13
2023-03-12T00:49:13.688Z,8.10
2023-03-12T00:50:15.960Z,8.50
2023-03-12T00:51:20.270Z,7.18
2023-03-12T00:52:22.258Z,6.15
2023-03-12T00:53:25.156Z,9.38
2023-03-12T00:54:27.061Z,7.50
2023-03-12T00:55:29.905Z,7.38
2023-03-12T00:56:32.252Z,8.35
2023-03-12T00:57:35.286Z,8.38
2023-03-12T00:58:38.188Z,8.45
2023-03-12T00:59:40.538Z,6.03
2023-03-12T01:00:43.926Z,7.93
2023-03-12T01:01:45.818Z,7.07
2023-03-12T01:02:48.801Z,6.13
2023-03-12T01:03:52.028Z,6.18
2023-03-12T01:04:55.113Z,7.15
2023-03-12T01:05:57.529Z,7.07
2023-03-12T01:07:01.991Z,9.68
2023-03-12T01:08:05.195Z,6.82
2023-03-12T01:09:10.137Z,8.82
2023-03-12T01:10:14.685Z,11.07
2023-03-12T01:11:19.664Z,6.75
2023-03-12T01:12:21.531Z,9.25
2023-03-12T01:13:24.608Z,9.40
2023-03-12T01:14:26.582Z,7.68
2023-03-12T01:15:29.878Z,8.48
2023-03-12T01:16:32.258Z,7.03
2023-03-12T01:17:35.106Z,5.95
2023-03-12T01:18:37.030Z,6.80
2023-03-12T01:19:41.069Z,6.90
2023-03-12T01:20:42.923Z,7.70
2023-03-12T01:21:45.773Z,7.93
2023-03-12T01:22:49.038Z,7.95
2023-03-12T01:23:52.544Z,8.27
2023-03-12T01:24:54.453Z,7.03
2023-03-12T01:25:57.741Z,7.00
2023-03-12T01:26:59.684Z,7.25
2023-03-12T01:28:03.017Z,6.95
2023-03-12T01:29:04.990Z,7.13
2023-03-12T01:30:09.186Z,7.28
2023-03-12T01:31:13.946Z,6.43
2023-03-12T01:32:17.158Z,7.07
2023-03-12T01:33:19.193Z,6.43
2023-03-12T01:34:22.103Z,7.30
2023-03-12T01:35:24.127Z,6.55
2023-03-12T01:36:29.603Z,5.57
2023-03-12T01:37:32.857Z,7.07
2023-03-12T01:38:37.108Z,7.53
2023-03-12T01:39:39.022Z,7.25
2023-03-12T01:40:43.766Z,7.03
2023-03-12T01:41:45.650Z,6.18
2023-03-12T01:42:53.731Z,8.43
2023-03-12T01:43:56.698Z,7.10
2023-03-12T01:45:01.084Z,5.32
2023-03-12T01:46:27.224Z,6.47
2023-03-12T01:47:32.830Z,6.68
2023-03-12T01:48:41.681Z,7.07
2023-03-12T01:49:46.335Z,6.88
2023-03-12T01:50:48.594Z,6.05
2023-03-12T01:51:56.449Z,5.88
2023-03-12T01:52:59.820Z,8.50
2023-03-12T01:54:08.671Z,6.18
2023-03-12T01:55:16.404Z,6.45
2023-03-12T01:56:22.947Z,5.75
2023-03-12T01:57:31.783Z,7.78
2023-03-12T01:58:38.898Z,4.97
2023-03-12T01:59:44.076Z,5.82
2023-03-12T02:00:47.193Z,6.28
2023-03-12T02:01:51.163Z,6.95
2023-03-12T02:02:56.462Z,7.18
2023-03-12T02:04:01.301Z,6.75
2023-03-12T02:05:10.244Z,8.20
2023-03-12T02:06:14.403Z,11.25
2023-03-12T02:07:18.847Z,6.50
2023-03-12T02:08:23.148Z,11.70
2023-03-12T02:09:27.828Z,5.80
2023-03-12T02:10:29.792Z,6.55
2023-03-12T02:11:32.767Z,5.93
2023-03-12T02:12:35.314Z,4.80
2023-03-12T02:13:38.704Z,5.80
2023-03-12T02:14:41.170Z,9.57
2023-03-12T02:15:44.225Z,5.45
2023-03-12T02:16:46.370Z,5.90
2023-03-12T02:17:49.326Z,5.60
2023-03-12T02:18:54.659Z,5.35
2023-03-12T02:20:07.908Z,6.13
2023-03-12T02:21:16.241Z,5.72
2023-03-12T02:22:20.998Z,5.35
2023-03-12T02:23:30.465Z,5.90
2023-03-12T02:24:41.656Z,6.07
2023-03-12T02:25:47.932Z,5.32
2023-03-12T02:26:51.279Z,9.40
2023-03-12T02:27:54.333Z,5.43
2023-03-12T02:28:57.914Z,7.93
2023-03-12T02:30:00.557Z,6.78
2023-03-12T02:31:05.052Z,5.47
2023-03-12T02:32:10.625Z,5.60
2023-03-12T02:33:13.146Z,5.28
2023-03-12T02:34:16.004Z,6.95
2023-03-12T02:35:18.298Z,5.97
2023-03-12T02:36:21.723Z,5.60
2023-03-12T02:37:23.920Z,5.28
2023-03-12T02:38:36.083Z,5.32
2023-03-12T02:39:42.454Z,5.10
2023-03-12T02:40:48.376Z,5.35
2023-03-12T02:41:53.942Z,5.00
2023-03-12T02:42:57.124Z,5.13
2023-03-12T02:44:05.282Z,4.65
2023-03-12T02:45:08.507Z,6.28
2023-03-12T02:46:11.531Z,5.30
2023-03-12T02:47:13.514Z,7.05
2023-03-12T02:48:16.412Z,5.72
2023-03-12T02:49:21.516Z,4.60
2023-03-12T02:50:24.866Z,5.03
2023-03-12T02:51:26.949Z,5.15
2023-03-12T02:52:35.511Z,6.20
2023-03-12T02:53:37.631Z,4.47
2023-03-12T02:54:40.665Z,6.15
2023-03-12T02:55:42.553Z,4.93
2023-03-12T02:56:46.830Z,6.05
2023-03-12T02:57:48.990Z,5.20
2023-03-12T02:58:51.870Z,5.70
2023-03-12T02:59:53.832Z,7.05
2023-03-12T03:00:57.021Z,6.78
2023-03-12T03:02:02.080Z,5.35
2023-03-12T03:03:04.243Z,4.88
2023-03-12T03:04:08.947Z,4.80
2023-03-12T03:05:11.997Z,5.43
2023-03-12T03:06:15.781Z,5.13
2023-03-12T03:07:17.819Z,5.90
2023-03-12T03:08:20.884Z,5.97
2023-03-12T03:09:24.645Z,5.18
2023-03-12T03:10:27.498Z,5.68
2023-03-12T03:11:30.303Z,4.90
2023-03-12T03:12:36.913Z,4.72
2023-03-12T03:13:39.976Z,4.93
2023-03-12T03:14:43.084Z,4.10
2023-03-12T03:15:45.040Z,4.93
2023-03-12T03:16:48.336Z,5.03
2023-03-12T03:17:50.338Z,5.88
2023-03-12T03:18:53.494Z,4.45
2023-03-12T03:19:55.830Z,5.10
2023-03-12T03:21:00.426Z,4.97
2023-03-12T03:22:02.576Z,5.07
2023-03-12T03:23:06.482Z,5.47
2023-03-12T03:24:08.579Z,5.35
2023-03-12T03:25:11.783Z,4.65
2023-03-12T03:26:14.496Z,6.22
2023-03-12T03:27:17.569Z,5.45
2023-03-12T03:28:21.263Z,4.97
2023-03-12T03:29:24.574Z,5.28
2023-03-12T03:30:26.682Z,5.82
2023-03-12T03:31:30.657Z,4.38
2023-03-12T03:32:34.048Z,5.20
2023-03-12T03:33:38.013Z,5.03
2023-03-12T03:34:41.909Z,4.65
2023-03-12T03:35:43.893Z,7.70
2023-03-12T03:36:46.881Z,4.80
2023-03-12T03:37:51.043Z,6.95
2023-03-12T03:38:53.930Z,5.07
2023-03-12T03:39:55.872Z,4.88
2023-03-12T03:40:59.061Z,6.35
2023-03-12T03:42:01.162Z,4.75
2023-03-12T03:43:06.503Z,4.63
2023-03-12T03:44:10.715Z,3.65
2023-03-12T03:45:14.612Z,4.38
2023-03-12T03:46:18.552Z,4.63
2023-03-12T03:47:26.301Z,4.93
2023-03-12T03:48:28.299Z,5.78
2023-03-12T03:49:31.291Z,4.60
2023-03-12T03:50:33.296Z,4.88
2023-03-12T03:51:36.184Z,4.68
2023-03-12T03:52:42.888Z,4.50
2023-03-12T03:53:45.762Z,4.57
2023-03-12T03:54:47.713Z,4.18
2023-03-12T03:55:50.661Z,6.13
2023-03-12T03:56:52.738Z,5.93
2023-03-12T03:57:57.020Z,5.65
2023-03-12T03:58:58.988Z,4.75
2023-03-12T04:00:08.935Z,4.07
2023-03-12T04:01:16.137Z,4.75
2023-03-12T04:02:20.453Z,4.57
2023-03-12T04:03:22.528Z,5.18
2023-03-12T04:04:25.453Z,4.65
2023-03-12T04:05:27.638Z,5.32
2023-03-12T04:06:31.327Z,4.85
2023-03-12T04:07:33.439Z,4.30
2023-03-12T04:08:37.786Z,4.70
2023-03-12T04:09:42.413Z,4.57
2023-03-12T04:10:45.429Z,4.07
2023-03-12T04:11:47.358Z,4.93
2023-03-12T04:12:51.154Z,5.47
2023-03-12T04:13:53.197Z,4.35
2023-03-12T04:14:59.519Z,4.25
2023-03-12T04:16:03.041Z,5.55
2023-03-12T04:17:06.329Z,4.63
2023-03-12T04:18:10.211Z,6.63
2023-03-12T04:19:13.305Z,5.38
2023-03-12T04:20:15.376Z,5.82
2023-03-12T04:21:18.914Z,5.00
2023-03-12T04:22:22.979Z,4.40
2023-03-12T04:23:26.755Z,4.88
2023-03-12T04:24:29.114Z,7.57
2023-03-12T04:25:32.162Z,5.32
2023-03-12T04:26:34.190Z,4.90
2023-03-12T04:27:38.385Z,4.18
2023-03-12T04:28:40.552Z,4.70
2023-03-12T04:29:45.423Z,4.53
2023-03-12T04:30:55.057Z,4.85
2023-03-12T04:31:59.285Z,4.07
2023-03-12T04:33:01.191Z,5.20
2023-03-12T04:34:04.331Z,5.35
2023-03-12T04:35:06.636Z,4.20
2023-03-12T04:36:10.449Z,5.13
2023-03-12T04:37:16.359Z,5.10
2023-03-12T04:38:18.635Z,5.78
2023-03-12T04:39:21.664Z,5.90
2023-03-12T04:40:26.751Z,6.20
2023-03-12T04:41:29.683Z,4.25
2023-03-12T04:42:37.819Z,6.85
2023-03-12T04:43:40.876Z,5.47
2023-03-12T04:44:43.083Z,4.95
2023-03-12T04:45:46.037Z,4.80
2023-03-12T04:46:48.028Z,5.97
2023-03-12T04:47:56.246Z,7.72
2023-03-12T04:48:58.188Z,4.53
2023-03-12T04:50:01.657Z,5.72
2023-03-12T04:51:04.887Z,5.28
2023-03-12T04:52:08.150Z,5.70
2023-03-12T04:53:10.377Z,5.55
2023-03-12T04:54:13.411Z,5.55
2023-03-12T04:55:17.240Z,5.10
2023-03-12T04:56:20.165Z,6.28
2023-03-12T04:57:22.760Z,6.30
2023-03-12T04:58:25.610Z,4.38
2023-03-12T04:59:27.585Z,5.55
2023-03-12T05:00:30.738Z,5.55
2023-03-12T05:01:34.486Z,5.13
2023-03-12T05:02:42.141Z,4.95
2023-03-12T05:03:45.435Z,5.65
2023-03-12T05:04:48.510Z,6.53
2023-03-12T05:05:50.523Z,4.22
2023-03-12T05:06:53.520Z,5.68
2023-03-12T05:07:55.367Z,4.85
2023-03-12T05:08:58.327Z,6.05
2023-03-12T05:10:00.294Z,9.05
2023-03-12T05:11:03.621Z,5.57
2023-03-12T05:12:07.269Z,4.22
2023-03-12T05:13:14.001Z,4.95
2023-03-12T05:14:16.904Z,4.88
2023-03-12T05:15:20.565Z,4.35
2023-03-12T05:16:23.624Z,5.00
2023-03-12T05:17:25.744Z,5.70
2023-03-12T05:18:28.870Z,5.90
2023-03-12T05:19:33.007Z,7.18
2023-03-12T05:20:35.017Z,4.60
2023-03-12T05:21:38.294Z,5.22
2023-03-12T05:22:40.840Z,4.65
2023-03-12T05:23:44.306Z,5.15
2023-03-12T05:24:47.225Z,5.55
2023-03-12T05:25:50.098Z,5.07
2023-03-12T05:26:52.047Z,5.63
2023-03-12T05:27:58.578Z,5.13
2023-03-12T05:29:01.713Z,6.78
2023-03-12T05:30:05.904Z,5.50
2023-03-12T05:31:10.371Z,4.07
2023-03-12T05:32:13.320Z,5.60
2023-03-12T05:33:15.665Z,6.57
2023-03-12T05:34:18.670Z,5.60
2023-03-12T05:35:23.270Z,9.05
2023-03-12T05:36:26.755Z,6.53
2023-03-12T05:37:29.586Z,4.07
2023-03-12T05:38:32.933Z,4.30
2023-03-12T05:39:35.054Z,4.68
2023-03-12T05:40:41.282Z,5.15
2023-03-12T05:41:44.330Z,5.28
2023-03-12T05:42:50.498Z,4.63
2023-03-12T05:43:56.274Z,4.13
2023-03-12T05:44:59.305Z,6.07
2023-03-12T05:46:04.349Z,4.95
2023-03-12T05:47:08.690Z,5.72
2023-03-12T05:48:11.819Z,4.30
2023-03-12T05:49:13.840Z,5.50
2023-03-12T05:50:17.189Z,5.45
2023-03-12T05:51:21.564Z,5.57
2023-03-12T05:52:24.669Z,4.80
2023-03-12T05:53:26.858Z,5.47
2023-03-12T05:54:30.308Z,6.40
2023-03-12T05:55:34.776Z,6.55
2023-03-12T05:56:38.297Z,6.18
2023-03-12T05:57:40.754Z,5.55
2023-03-12T05:58:45.419Z,6.05
2023-03-12T05:59:47.305Z,6.00
2023-03-12T06:00:51.178Z,8.63
2023-03-12T06:01:53.423Z,5.03
2023-03-12T06:02:56.645Z,4.95
2023-03-12T06:03:58.730Z,5.90
2023-03-12T06:05:02.364Z,8.05
2023-03-12T06:06:04.993Z,5.60
2023-03-12T06:07:09.359Z,6.03
2023-03-12T06:08:11.480Z,5.53
2023-03-12T06:09:14.863Z,6.20
2023-03-12T06:10:17.678Z,5.93
2023-03-12T06:11:20.977Z,4.60
2023-03-12T06:12:23.172Z,7.68
2023-03-12T06:13:28.024Z,6.18
2023-03-12T06:14:31.525Z,6.13
2023-03-12T06:15:36.111Z,6.65
2023-03-12T06:16:40.427Z,7.03
2023-03-12T06:17:43.640Z,5.78
2023-03-12T06:18:46.912Z,5.25
2023-03-12T06:19:52.760Z,7.15
2023-03-12T06:20:55.608Z,6.13
2023-03-12T06:21:58.947Z,6.30
2023-03-12T06:23:04.102Z,5.10
2023-03-12T06:24:08.979Z,7.05
2023-03-12T06:25:25.804Z,5.40
2023-03-12T06:26:28.079Z,6.38
2023-03-12T06:27:31.263Z,6.00
2023-03-12T06:28:33.591Z,6.40
2023-03-12T06:29:36.477Z,5.35
2023-03-12T06:30:39.316Z,5.38
2023-03-12T06:31:44.060Z,4.68
2023-03-12T06:32:47.081Z,8.18
2023-03-12T06:33:49.145Z,6.15
2023-03-12T06:34:52.066Z,5.22
2023-03-12T06:35:55.485Z,5.68
2023-03-12T06:36:58.658Z,6.80
2023-03-12T06:38:00.542Z,5.43
2023-03-12T06:39:08.176Z,6.78
2023-03-12T06:40:13.091Z,4.75
2023-03-12T06:41:17.245Z,6.35
2023-03-12T06:42:20.720Z,4.82
2023-03-12T06:43:22.690Z,5.40
2023-03-12T06:44:25.580Z,5.32
2023-03-12T06:45:27.475Z,5.20
2023-03-12T06:46:30.716Z,5.82
2023-03-12T06:47:32.985Z,5.60
2023-03-12T06:48:37.294Z,4.53
2023-03-12T06:49:40.484Z,6.57
2023-03-12T06:50:42.450Z,4.00
2023-03-12T06:51:45.365Z,5.10
2023-03-12T06:52:47.319Z,5.43
2023-03-12T06:53:50.145Z,4.25
2023-03-12T06:54:53.460Z,5.03
2023-03-12T06:55:56.339Z,5.28
2023-03-12T06:56:59.368Z,3.90
2023-03-12T06:58:03.940Z,5.57
2023-03-12T06:59:06.979Z,4.32
2023-03-12T07:00:10.438Z,4.22
2023-03-12T07:01:13.395Z,5.63
2023-03-12T07:02:15.311Z,4.72
2023-03-12T07:03:18.279Z,6.15
2023-03-12T07:04:20.507Z,3.88
2023-03-12T07:05:23.489Z,3.80
2023-03-12T07:06:25.540Z,3.70
2023-03-12T07:07:28.416Z,4.68
2023-03-12T07:08:31.893Z,4.50
2023-03-12T07:09:34.807Z,6.22
2023-03-12T07:10:38.001Z,5.15
2023-03-12T07:11:40.850Z,3.28
2023-03-12T07:12:42.818Z,3.65
2023-03-12T07:13:46.715Z,3.80
2023-03-12T07:14:48.614Z,3.28
2023-03-12T07:15:51.528Z,3.13
2023-03-12T07:16:54.508Z,3.08
2023-03-12T07:17:59.886Z,3.10
2023-03-12T07:19:03.881Z,3.85
2023-03-12T07:20:07.185Z,4.05
2023-03-12T07:21:10.031Z,3.15
2023-03-12T07:22:11.948Z,4.03
2023-03-12T07:23:15.213Z,3.17
2023-03-12T07:24:18.138Z,4.28
2023-03-12T07:25:20.126Z,3.95
2023-03-12T07:26:24.732Z,3.67
2023-03-12T07:27:26.599Z,3.50
2023-03-12T07:28:29.607Z,4.82
2023-03-12T07:29:32.426Z,4.38
2023-03-12T07:30:35.111Z,3.42
2023-03-12T07:31:37.982Z,4.00
2023-03-12T07:32:41.545Z,5.13
2023-03-12T07:33:44.508Z,3.60
2023-03-12T07:34:46.666Z,3.47
2023-03-12T07:35:51.838Z,4.00
2023-03-12T07:36:56.396Z,3.38
2023-03-12T07:37:58.453Z,3.50
2023-03-12T07:39:01.415Z,5.05
2023-03-12T07:40:07.314Z,3.83
2023-03-12T07:41:10.337Z,2.50
2023-03-12T07:42:13.792Z,3.05
2023-03-12T07:43:20.396Z,3.20
2023-03-12T07:44:26.251Z,3.03
2023-03-12T07:45:29.425Z,4.38
2023-03-12T07:46:31.395Z,2.08
2023-03-12T07:47:34.414Z,3.33
2023-03-12T07:48:37.483Z,2.72
2023-03-12T07:49:41.787Z,2.60
2023-03-12T07:50:44.741Z,2.70
2023-03-12T07:51:46.964Z,3.80
2023-03-12T07:52:49.846Z,2.70
2023-03-12T07:53:51.658Z,2.83
2023-03-12T07:54:56.495Z,4.40
2023-03-12T07:55:59.534Z,3.08
2023-03-12T07:57:02.813Z,2.70
2023-03-12T07:58:06.480Z,2.58
2023-03-12T07:59:09.569Z,3.10
2023-03-12T08:00:12.864Z,2.72
2023-03-12T08:01:17.873Z,3.10
2023-03-12T08:02:20.875Z,3.13
2023-03-12T08:03:23.465Z,2.50
2023-03-12T08:04:26.556Z,4.00
2023-03-12T08:05:28.624Z,3.00
2023-03-12T08:06:31.789Z,3.70
2023-03-12T08:07:35.221Z,2.90
2023-03-12T08:08:41.747Z,3.50
2023-03-12T08:09:44.364Z,2.10
2023-03-12T08:10:47.646Z,3.28
2023-03-12T08:11:49.550Z,2.55
2023-03-12T08:12:52.443Z,2.55
2023-03-12T08:13:56.727Z,3.10
2023-03-12T08:14:58.935Z,4.18
2023-03-12T08:16:01.849Z,2.13
2023-03-12T08:17:03.822Z,2.83
2023-03-12T08:18:06.735Z,2.63
2023-03-12T08:19:08.728Z,2.70
2023-03-12T08:20:13.256Z,1.98
2023-03-12T08:21:16.670Z,2.05
2023-03-12T08:22:19.610Z,2.25
2023-03-12T08:23:23.609Z,2.38
2023-03-12T08:24:25.755Z,2.50
2023-03-12T08:25:28.951Z,2.40
2023-03-12T08:26:31.777Z,2.20
2023-03-12T08:27:34.925Z,2.28
2023-03-12T08:28:37.860Z,2.10
2023-03-12T08:29:42.070Z,2.25
2023-03-12T08:30:47.456Z,2.60
2023-03-12T08:32:03.783Z,3.75
2023-03-12T08:33:07.724Z,2.63
2023-03-12T08:34:09.718Z,1.83
2023-03-12T08:35:12.586Z,2.00
2023-03-12T08:36:15.397Z,1.75
2023-03-12T08:37:17.756Z,2.35
2023-03-12T08:38:20.911Z,2.20
2023-03-12T08:39:22.832Z,2.42
2023-03-12T08:40:25.678Z,2.15
2023-03-12T08:41:27.547Z,2.03
2023-03-12T08:42:30.386Z,1.92
2023-03-12T08:43:32.220Z,2.35
2023-03-12T08:44:35.447Z,2.15
2023-03-12T08:45:38.883Z,4.57
2023-03-12T08:46:41.728Z,2.30
2023-03-12T08:47:44.329Z,1.63
2023-03-12T08:48:47.302Z,3.63
2023-03-12T08:49:49.235Z,2.80
2023-03-12T08:50:52.566Z,2.35
2023-03-12T08:51:54.612Z,1.77
2023-03-12T08:52:57.454Z,2.50
2023-03-12T08:53:59.365Z,1.98
2023-03-12T08:55:02.256Z,2.20
2023-03-12T08:56:05.219Z,1.73
2023-03-12T08:57:08.198Z,3.33
2023-03-12T08:58:10.100Z,1.95
2023-03-12T08:59:13.583Z,2.20
2023-03-12T09:00:18.082Z,1.52
2023-03-12T09:01:21.420Z,2.75
2023-03-12T09:02:24.334Z,1.85
2023-03-12T09:03:27.703Z,2.20
2023-03-12T09:04:29.661Z,1.63
2023-03-12T09:05:33.772Z,2.30
2023-03-12T09:06:35.689Z,1.83
2023-03-12T09:07:38.628Z,2.72
2023-03-12T09:08:40.552Z,1.80
2023-03-12T09:09:43.497Z,2.75
2023-03-12T09:10:48.745Z,2.42
2023-03-12T09:11:51.615Z,2.55
2023-03-12T09:12:53.500Z,2.25
2023-03-12T09:14:33.555Z,2.30
2023-03-12T09:15:19.800Z,1.50
2023-03-12T09:16:23.053Z,1.70
2023-03-12T09:17:26.111Z,2.70
2023-03-12T09:18:29.347Z,1.63
2023-03-12T09:19:32.580Z,2.42
2023-03-12T09:20:35.491Z,2.00
2023-03-12T09:21:39.921Z,1.85
2023-03-12T09:22:42.810Z,1.83
2023-03-12T09:23:46.785Z,2.20
2023-03-12T09:24:48.686Z,2.35
2023-03-12T09:25:52.015Z,1.83
2023-03-12T09:26:54.839Z,1.55
2023-03-12T09:27:57.016Z,1.83
2023-03-12T09:29:00.098Z,2.88
2023-03-12T09:30:02.141Z,2.03
2023-03-12T09:31:05.945Z,1.42
2023-03-12T09:32:10.470Z,1.55
2023-03-12T09:33:13.194Z,1.67
2023-03-12T09:34:16.059Z,1.75
2023-03-12T09:35:19.065Z,2.17
2023-03-12T09:36:21.963Z,1.60
2023-03-12T09:37:24.506Z,1.48
2023-03-12T09:38:27.956Z,1.30
2023-03-12T09:39:29.849Z,1.60
2023-03-12T09:40:37.188Z,1.65
2023-03-12T09:41:43.725Z,1.42
2023-03-12T09:42:50.556Z,1.90
2023-03-12T09:43:58.506Z,1.42
2023-03-12T09:45:04.639Z,1.23
2023-03-12T09:46:13.919Z,1.10
2023-03-12T09:47:27.960Z,1.55
2023-03-12T09:48:34.288Z,1.13
2023-03-12T09:49:40.925Z,1.33
2023-03-12T09:50:46.968Z,1.38
2023-03-12T09:51:54.018Z,0.90
2023-03-12T09:53:01.221Z,1.25
2023-03-12T09:54:08.032Z,1.45
2023-03-12T09:55:14.890Z,1.30
2023-03-12T09:56:19.571Z,1.27
2023-03-12T09:57:28.967Z,1.23
2023-03-12T09:58:34.454Z,1.33
2023-03-12T09:59:37.238Z,2.33
2023-03-12T10:00:40.292Z,2.00
2023-03-12T10:01:47.865Z,2.08
2023-03-12T10:03:08.443Z,1.58
2023-03-12T10:04:21.541Z,2.22
2023-03-12T10:05:33.422Z,2.85
2023-03-12T10:06:39.963Z,2.40
2023-03-12T10:07:49.353Z,1.85
2023-03-12T10:09:02.915Z,1.65
2023-03-12T10:10:17.443Z,1.95
2023-03-12T10:11:32.173Z,1.65
2023-03-12T10:12:47.616Z,1.60
2023-03-12T10:14:05.942Z,1.75
2023-03-12T10:15:21.336Z,1.83
2023-03-12T10:16:37.413Z,1.52
2023-03-12T10:17:49.691Z,1.70
2023-03-12T10:19:06.833Z,1.33
2023-03-12T10:20:35.256Z,1.48
2023-03-12T10:21:47.928Z,1.45
2023-03-12T10:22:55.635Z,1.38
2023-03-12T10:24:14.842Z,4.07
2023-03-12T10:25:22.818Z,5.25
2023-03-12T10:26:29.449Z,2.70
2023-03-12T10:27:35.710Z,1.58
2023-03-12T10:28:43.534Z,1.45
2023-03-12T10:29:49.845Z,1.83
2023-03-12T10:30:56.389Z,5.90
2023-03-12T10:32:02.656Z,1.65
2023-03-12T10:33:13.452Z,1.65
2023-03-12T10:34:24.269Z,1.50
2023-03-12T10:35:30.344Z,2.25
2023-03-12T10:36:39.142Z,1.10
2023-03-12T10:37:44.633Z,1.58
2023-03-12T10:38:49.338Z,3.72
2023-03-12T10:39:53.145Z,2.28
2023-03-12T10:40:55.971Z,1.45
2023-03-12T10:42:01.056Z,1.27
2023-03-12T10:43:07.119Z,1.35
2023-03-12T10:44:14.620Z,1.75
2023-03-12T10:45:25.165Z,1.30
2023-03-12T10:46:46.767Z,3.00
2023-03-12T10:47:53.014Z,2.13
2023-03-12T10:49:24.323Z,1.60
2023-03-12T10:50:29.216Z,1.52
2023-03-12T10:51:31.366Z,1.70
2023-03-12T10:52:34.260Z,1.20
2023-03-12T10:53:39.038Z,1.45
2023-03-12T10:54:44.750Z,3.05
2023-03-12T10:55:59.812Z,1.40
2023-03-12T10:57:02.233Z,1.55
2023-03-12T10:58:05.066Z,1.25
2023-03-12T10:59:21.099Z,1.60
2023-03-12T11:00:26.864Z,1.58
2023-03-12T11:01:30.652Z,1.45
2023-03-12T11:02:35.959Z,1.88
2023-03-12T11:03:39.344Z,1.60
2023-03-12T11:04:51.717Z,1.48
2023-03-12T11:05:56.154Z,1.45
2023-03-12T11:07:19.138Z,1.80
2023-03-12T11:08:24.408Z,1.83
2023-03-12T11:09:26.532Z,1.42
2023-03-12T11:10:42.557Z,1.52
2023-03-12T11:11:47.516Z,1.50
2023-03-12T11:13:05.131Z,1.85
2023-03-12T11:14:13.061Z,1.67
2023-03-12T11:15:25.566Z,1.55
2023-03-12T11:16:31.502Z,1.58
2023-03-12T11:17:34.988Z,1.90
2023-03-12T11:18:38.995Z,1.40
2023-03-12T11:19:45.951Z,1.10
2023-03-12T11:20:52.481Z,2.20
2023-03-12T11:21:57.942Z,1.30
2023-03-12T11:23:15.247Z,0.95
2023-03-12T11:24:18.145Z,1.50
2023-03-12T11:25:22.885Z,1.10
2023-03-12T11:26:30.424Z,1.02
2023-03-12T11:27:43.667Z,1.30
2023-03-12T11:28:49.085Z,1.42
2023-03-12T11:29:52.214Z,1.20
2023-03-12T11:30:58.385Z,2.25
2023-03-12T11:32:07.196Z,1.25
2023-03-12T11:33:12.384Z,1.30
2023-03-12T11:34:22.278Z,1.85
2023-03-12T11:35:40.478Z,1.85
2023-03-12T11:36:50.088Z,1.90
2023-03-12T11:38:01.091Z,1.45
2023-03-12T11:39:12.143Z,1.23
2023-03-12T11:40:22.864Z,1.60
2023-03-12T11:41:37.230Z,1.25
2023-03-12T11:42:55.281Z,1.50
2023-03-12T11:44:18.948Z,1.42
2023-03-12T11:45:28.235Z,0.90
2023-03-12T11:46:42.669Z,1.40
2023-03-12T11:47:58.706Z,0.93
2023-03-12T11:49:12.885Z,1.70
2023-03-12T11:50:38.933Z,1.25
2023-03-12T11:51:53.022Z,1.30
2023-03-12T11:53:29.537Z,1.50
2023-03-12T11:54:57.739Z,2.53
2023-03-12T11:56:13.933Z,1.63
2023-03-12T11:57:28.721Z,1.25
2023-03-12T11:58:45.017Z,2.42
2023-03-12T11:59:58.494Z,1.40
2023-03-12T12:01:08.313Z,1.58
2023-03-12T12:02:27.402Z,1.73
2023-03-12T12:03:44.228Z,1.65
2023-03-12T12:05:24.005Z,2.55
2023-03-12T12:06:38.269Z,2.17
2023-03-12T12:07:54.998Z,1.55
2023-03-12T12:09:10.115Z,5.80
2023-03-12T12:10:24.296Z,1.63
2023-03-12T12:11:37.344Z,1.58
2023-03-12T12:12:52.103Z,5.60
2023-03-12T12:14:11.389Z,8.63
2023-03-12T12:15:21.198Z,4.60
2023-03-12T12:16:37.265Z,2.50
2023-03-12T12:17:52.986Z,2.80
2023-03-12T12:19:09.105Z,1.50
2023-03-12T12:20:26.824Z,2.15
2023-03-12T12:21:44.589Z,1.80
2023-03-12T12:22:59.271Z,1.92
2023-03-12T12:24:12.536Z,1.83
2023-03-12T12:25:39.540Z,1.98
2023-03-12T12:26:47.909Z,3.00
2023-03-12T12:28:04.000Z,2.00
2023-03-12T12:29:20.794Z,1.88
2023-03-12T12:30:27.983Z,2.78
2023-03-12T12:31:37.416Z,2.58
2023-03-12T12:32:59.627Z,2.05
2023-03-12T12:34:29.058Z,6.45
2023-03-12T12:35:36.972Z,20.48
2023-03-12T12:36:40.331Z,12.93
2023-03-12T12:37:51.569Z,6.15
2023-03-12T12:39:01.235Z,3.78
2023-03-12T12:40:17.097Z,2.33
2023-03-12T12:41:23.700Z,3.10
2023-03-12T12:42:32.792Z,2.58
2023-03-12T12:43:39.681Z,3.10
2023-03-12T12:44:46.874Z,2.30
2023-03-12T12:45:52.356Z,4.40
2023-03-12T12:47:01.246Z,2.55
2023-03-12T12:48:10.088Z,2.78
2023-03-12T12:49:16.272Z,4.00
2023-03-12T12:50:21.502Z,5.00
2023-03-12T12:51:27.621Z,6.65
2023-03-12T12:52:31.070Z,2.92
2023-03-12T12:53:41.511Z,2.60
2023-03-12T12:54:54.684Z,2.78
2023-03-12T12:56:07.372Z,4.68
2023-03-12T12:57:15.767Z,3.70
2023-03-12T12:58:25.394Z,3.10
2023-03-12T12:59:37.650Z,2.88
2023-03-12T13:00:48.252Z,5.05
2023-03-12T13:01:53.799Z,2.72
2023-03-12T13:02:57.262Z,2.83
2023-03-12T13:04:05.396Z,2.22
2023-03-12T13:05:20.604Z,2.72
2023-03-12T13:06:23.531Z,3.17
2023-03-12T13:07:37.964Z,3.13
2023-03-12T13:09:02.369Z,2.63
2023-03-12T13:10:53.017Z,2.53
2023-03-12T13:12:09.295Z,2.90
2023-03-12T13:13:19.301Z,2.60
2023-03-12T13:14:36.814Z,3.65
2023-03-12T13:15:43.482Z,3.35
2023-03-12T13:16:46.806Z,3.50
2023-03-12T13:18:06.491Z,3.53
2023-03-12T13:19:25.222Z,3.47
2023-03-12T13:20:34.726Z,2.78
2023-03-12T13:21:39.755Z,2.20
2023-03-12T13:23:03.403Z,3.33
2023-03-12T13:24:23.309Z,3.47
2023-03-12T13:25:39.831Z,6.28
2023-03-12T13:26:53.256Z,3.70
2023-03-12T13:28:00.434Z,5.05
2023-03-12T13:29:24.104Z,2.95
2023-03-12T13:30:47.271Z,3.40
2023-03-12T13:31:50.518Z,6.60
2023-03-12T13:33:10.379Z,3.97
2023-03-12T13:34:52.650Z,3.47
2023-03-12T13:36:12.684Z,3.72
2023-03-12T13:37:57.251Z,4.35
2023-03-12T13:39:21.050Z,3.95
2023-03-12T13:40:55.652Z,3.10
2023-03-12T13:42:00.115Z,3.22
2023-03-12T13:43:11.528Z,3.85
2023-03-12T13:44:30.409Z,3.15
2023-03-12T13:45:32.754Z,4.55
2023-03-12T13:46:43.544Z,2.78
2023-03-12T13:47:47.705Z,2.72
2023-03-12T13:48:50.091Z,3.78
2023-03-12T13:49:56.093Z,2.85
2023-03-12T13:51:02.491Z,3.08
2023-03-12T13:52:23.921Z,3.22
2023-03-12T13:53:28.225Z,3.13
2023-03-12T13:54:35.907Z,2.70
2023-03-12T13:55:40.951Z,2.65
2023-03-12T13:56:54.037Z,5.55
2023-03-12T13:58:00.422Z,2.85
2023-03-12T13:59:04.941Z,2.40
2023-03-12T14:00:16.456Z,2.50
2023-03-12T14:01:20.642Z,3.83
2023-03-12T14:02:28.152Z,3.10
2023-03-12T14:03:33.726Z,2.60
2023-03-12T14:04:40.843Z,3.83
2023-03-12T14:05:52.294Z,4.18
2023-03-12T14:07:16.720Z,4.07
2023-03-12T14:08:40.318Z,4.18
2023-03-12T14:09:50.988Z,2.60
2023-03-12T14:11:04.327Z,3.90
2023-03-12T14:12:11.292Z,2.65
2023-03-12T14:13:26.122Z,2.85
2023-03-12T14:14:47.956Z,3.28
2023-03-12T14:15:56.634Z,2.53
2023-03-12T14:17:01.835Z,2.67
2023-03-12T14:18:15.214Z,2.88
2023-03-12T14:19:19.839Z,2.90
2023-03-12T14:20:24.234Z,4.10
2023-03-12T14:21:31.275Z,2.10
2023-03-12T14:22:36.369Z,2.35
2023-03-12T14:23:41.927Z,2.22
2023-03-12T14:24:52.583Z,3.17
2023-03-12T14:25:59.509Z,4.03
2023-03-12T14:27:03.044Z,2.55
2023-03-12T14:28:13.584Z,2.13
2023-03-12T14:29:21.116Z,3.20
2023-03-12T14:30:26.503Z,1.80
2023-03-12T14:31:31.534Z,2.95
2023-03-12T14:32:34.700Z,2.05
2023-03-12T14:33:49.735Z,2.05
2023-03-12T14:34:58.595Z,2.63
2023-03-12T14:36:06.004Z,4.25
2023-03-12T14:37:16.681Z,4.68
2023-03-12T14:38:26.941Z,2.30
2023-03-12T14:39:33.308Z,2.75